sensor_id;sensor_type;location;lat;lon;timestamp;pressure;altitude;pressure_sealevel;temperature;humidity
74329;BME280;62749;51.982;5.916;2023-03-26T00:00:28;100457.75;;;8.55;86.65
74329;BME280;62749;51.982;5.916;2023-03-26T00:02:58;100459.47;;;8.56;86.74
74329;BME280;62749;51.982;5.916;2023-03-26T00:05:27;100465.28;;;8.65;86.71
74329;BME280;62749;51.982;5.916;2023-03-26T00:07:57;100466.81;;;8.70;86.49
74329;BME280;62749;51.982;5.916;2023-03-26T00:10:26;100468.75;;;8.65;86.31
74329;BME280;62749;51.982;5.916;2023-03-26T00:12:58;100460.56;;;8.73;86.46
74329;BME280;62749;51.982;5.916;2023-03-26T00:15:28;100468.59;;;8.70;86.68
74329;BME280;62749;51.982;5.916;2023-03-26T00:17:57;100471.16;;;8.71;86.80
74329;BME280;62749;51.982;5.916;2023-03-26T00:20:29;100469.94;;;8.80;86.64
74329;BME280;62749;51.982;5.916;2023-03-26T00:22:58;100461.97;;;8.82;86.50
74329;BME280;62749;51.982;5.916;2023-03-26T00:25:29;100464.69;;;8.80;86.48
74329;BME280;62749;51.982;5.916;2023-03-26T00:28:02;100455.97;;;8.78;86.72
74329;BME280;62749;51.982;5.916;2023-03-26T00:30:33;100443.72;;;8.77;86.56
74329;BME280;62749;51.982;5.916;2023-03-26T00:33:06;100450.44;;;8.84;86.58
74329;BME280;62749;51.982;5.916;2023-03-26T00:35:37;100450.34;;;8.87;86.75
74329;BME280;62749;51.982;5.916;2023-03-26T00:38:08;100448.38;;;8.93;86.43
74329;BME280;62749;51.982;5.916;2023-03-26T00:40:38;100439.78;;;8.87;86.42
74329;BME280;62749;51.982;5.916;2023-03-26T00:43:12;100444.03;;;8.92;86.64
74329;BME280;62749;51.982;5.916;2023-03-26T00:45:49;100436.31;;;8.87;86.97
74329;BME280;62749;51.982;5.916;2023-03-26T00:48:20;100431.25;;;8.82;87.07
74329;BME280;62749;51.982;5.916;2023-03-26T00:50:50;100433.06;;;8.80;87.32
74329;BME280;62749;51.982;5.916;2023-03-26T00:53:19;100429.44;;;8.83;87.65
74329;BME280;62749;51.982;5.916;2023-03-26T00:55:49;100420.69;;;8.82;87.55
74329;BME280;62749;51.982;5.916;2023-03-26T00:58:21;100416.19;;;8.84;87.69
74329;BME280;62749;51.982;5.916;2023-03-26T01:00:53;100416.88;;;8.89;87.51
74329;BME280;62749;51.982;5.916;2023-03-26T01:03:26;100406.28;;;8.91;87.39
74329;BME280;62749;51.982;5.916;2023-03-26T01:06:00;100410.78;;;8.89;87.65
74329;BME280;62749;51.982;5.916;2023-03-26T01:08:37;100415.97;;;8.90;87.75
74329;BME280;62749;51.982;5.916;2023-03-26T01:11:10;100410.88;;;8.86;87.98
74329;BME280;62749;51.982;5.916;2023-03-26T01:13:47;100406.41;;;8.88;87.95
74329;BME280;62749;51.982;5.916;2023-03-26T01:16:24;100405.50;;;8.89;88.36
74329;BME280;62749;51.982;5.916;2023-03-26T01:18:55;100402.78;;;8.90;88.43
74329;BME280;62749;51.982;5.916;2023-03-26T01:21:27;100404.59;;;8.90;88.38
74329;BME280;62749;51.982;5.916;2023-03-26T01:24:03;100394.66;;;8.97;88.34
74329;BME280;62749;51.982;5.916;2023-03-26T01:26:52;100400.56;;;9.02;88.16
74329;BME280;62749;51.982;5.916;2023-03-26T01:32:29;100390.47;;;8.91;88.66
74329;BME280;62749;51.982;5.916;2023-03-26T01:35:15;100387.59;;;8.97;88.93
74329;BME280;62749;51.982;5.916;2023-03-26T01:38:01;100382.94;;;9.04;88.69
74329;BME280;62749;51.982;5.916;2023-03-26T01:40:43;100375.94;;;9.03;88.58
74329;BME280;62749;51.982;5.916;2023-03-26T01:43:23;100363.09;;;8.95;88.86
74329;BME280;62749;51.982;5.916;2023-03-26T01:45:59;100373.09;;;8.87;89.54
74329;BME280;62749;51.982;5.916;2023-03-26T01:48:34;100362.16;;;8.96;89.64
74329;BME280;62749;51.982;5.916;2023-03-26T01:51:05;100364.47;;;9.04;89.50
74329;BME280;62749;51.982;5.916;2023-03-26T01:53:39;100356.44;;;9.07;88.69
74329;BME280;62749;51.982;5.916;2023-03-26T01:56:19;100366.44;;;8.99;88.64
74329;BME280;62749;51.982;5.916;2023-03-26T01:59:06;100354.78;;;9.04;88.88
74329;BME280;62749;51.982;5.916;2023-03-26T02:01:44;100355.72;;;9.03;89.28
74329;BME280;62749;51.982;5.916;2023-03-26T02:04:25;100351.91;;;9.11;88.80
74329;BME280;62749;51.982;5.916;2023-03-26T02:07:01;100345.50;;;9.16;88.61
74329;BME280;62749;51.982;5.916;2023-03-26T02:09:40;100331.81;;;9.08;88.32
74329;BME280;62749;51.982;5.916;2023-03-26T02:12:15;100331.94;;;9.05;88.66
74329;BME280;62749;51.982;5.916;2023-03-26T02:14:45;100323.94;;;9.06;89.12
74329;BME280;62749;51.982;5.916;2023-03-26T02:17:15;100327.97;;;9.15;88.33
74329;BME280;62749;51.982;5.916;2023-03-26T02:19:44;100314.81;;;9.15;87.70
74329;BME280;62749;51.982;5.916;2023-03-26T02:22:14;100319.69;;;9.04;87.55
74329;BME280;62749;51.982;5.916;2023-03-26T02:24:44;100330.81;;;9.11;87.99
74329;BME280;62749;51.982;5.916;2023-03-26T02:27:16;100322.72;;;9.15;88.23
74329;BME280;62749;51.982;5.916;2023-03-26T02:29:45;100322.72;;;9.15;88.00
74329;BME280;62749;51.982;5.916;2023-03-26T02:32:15;100318.09;;;9.20;88.04
74329;BME280;62749;51.982;5.916;2023-03-26T02:34:45;100309.59;;;9.14;87.90
74329;BME280;62749;51.982;5.916;2023-03-26T02:37:16;100312.84;;;9.20;87.33
74329;BME280;62749;51.982;5.916;2023-03-26T02:39:46;100310.19;;;9.20;86.95
74329;BME280;62749;51.982;5.916;2023-03-26T02:42:18;100308.47;;;9.19;86.75
74329;BME280;62749;51.982;5.916;2023-03-26T02:44:48;100300.97;;;9.10;87.09
74329;BME280;62749;51.982;5.916;2023-03-26T02:47:17;100303.47;;;9.13;87.63
74329;BME280;62749;51.982;5.916;2023-03-26T02:49:47;100287.28;;;9.02;88.22
74329;BME280;62749;51.982;5.916;2023-03-26T02:52:16;100300.56;;;9.19;87.96
74329;BME280;62749;51.982;5.916;2023-03-26T02:54:46;100297.03;;;9.20;87.69
74329;BME280;62749;51.982;5.916;2023-03-26T02:57:18;100295.22;;;9.21;87.51
74329;BME280;62749;51.982;5.916;2023-03-26T02:59:47;100287.44;;;9.18;87.77
74329;BME280;62749;51.982;5.916;2023-03-26T03:02:18;100288.44;;;9.15;87.50
74329;BME280;62749;51.982;5.916;2023-03-26T03:04:49;100276.47;;;9.08;86.89
74329;BME280;62749;51.982;5.916;2023-03-26T03:07:27;100293.84;;;9.12;86.58
74329;BME280;62749;51.982;5.916;2023-03-26T03:09:57;100284.19;;;9.13;86.96
74329;BME280;62749;51.982;5.916;2023-03-26T03:12:31;100284.97;;;9.15;86.42
74329;BME280;62749;51.982;5.916;2023-03-26T03:15:01;100284.50;;;9.05;86.48
74329;BME280;62749;51.982;5.916;2023-03-26T03:17:30;100282.00;;;9.02;86.95
74329;BME280;62749;51.982;5.916;2023-03-26T03:20:00;100277.91;;;9.15;86.64
74329;BME280;62749;51.982;5.916;2023-03-26T03:22:29;100272.75;;;9.12;86.03
74329;BME280;62749;51.982;5.916;2023-03-26T03:24:59;100271.72;;;9.16;85.92
74329;BME280;62749;51.982;5.916;2023-03-26T03:27:31;100267.28;;;9.17;86.07
74329;BME280;62749;51.982;5.916;2023-03-26T03:30:00;100262.09;;;9.15;85.43
74329;BME280;62749;51.982;5.916;2023-03-26T03:32:29;100259.47;;;9.15;85.36
74329;BME280;62749;51.982;5.916;2023-03-26T03:34:59;100261.16;;;9.16;85.28
74329;BME280;62749;51.982;5.916;2023-03-26T03:37:28;100236.94;;;9.08;85.46
74329;BME280;62749;51.982;5.916;2023-03-26T03:39:58;100245.06;;;9.03;86.29
74329;BME280;62749;51.982;5.916;2023-03-26T03:42:27;100246.41;;;9.12;86.19
74329;BME280;62749;51.982;5.916;2023-03-26T03:44:59;100249.00;;;9.14;85.46
74329;BME280;62749;51.982;5.916;2023-03-26T03:47:29;100253.41;;;9.13;85.77
74329;BME280;62749;51.982;5.916;2023-03-26T03:49:59;100248.53;;;9.04;86.44
74329;BME280;62749;51.982;5.916;2023-03-26T03:52:28;100247.53;;;9.06;86.94
74329;BME280;62749;51.982;5.916;2023-03-26T03:54:57;100253.69;;;9.07;86.37
74329;BME280;62749;51.982;5.916;2023-03-26T03:57:28;100253.47;;;9.12;86.57
74329;BME280;62749;51.982;5.916;2023-03-26T04:00:01;100250.59;;;8.97;85.94
74329;BME280;62749;51.982;5.916;2023-03-26T04:02:32;100248.91;;;9.15;85.73
74329;BME280;62749;51.982;5.916;2023-03-26T04:05:04;100240.25;;;8.93;86.16
74329;BME280;62749;51.982;5.916;2023-03-26T04:07:34;100233.16;;;8.95;86.28
74329;BME280;62749;51.982;5.916;2023-03-26T04:10:05;100226.66;;;9.02;86.02
74329;BME280;62749;51.982;5.916;2023-03-26T04:12:35;100228.59;;;8.98;86.38
74329;BME280;62749;51.982;5.916;2023-03-26T04:15:08;100226.66;;;9.02;86.72
74329;BME280;62749;51.982;5.916;2023-03-26T04:17:38;100212.78;;;8.98;86.91
74329;BME280;62749;51.982;5.916;2023-03-26T04:20:09;100207.53;;;8.98;86.69
74329;BME280;62749;51.982;5.916;2023-03-26T04:22:41;100207.59;;;8.97;86.56
74329;BME280;62749;51.982;5.916;2023-03-26T04:25:11;100213.28;;;9.06;86.62
74329;BME280;62749;51.982;5.916;2023-03-26T04:27:41;100209.53;;;9.12;85.87
74329;BME280;62749;51.982;5.916;2023-03-26T04:30:17;100212.09;;;9.14;84.92
74329;BME280;62749;51.982;5.916;2023-03-26T04:32:48;100202.91;;;9.03;85.03
74329;BME280;62749;51.982;5.916;2023-03-26T04:35:18;100205.53;;;9.03;86.08
74329;BME280;62749;51.982;5.916;2023-03-26T04:37:49;100195.22;;;9.18;85.10
74329;BME280;62749;51.982;5.916;2023-03-26T04:40:20;100198.34;;;9.07;84.89
74329;BME280;62749;51.982;5.916;2023-03-26T04:42:50;100188.38;;;9.14;85.24
74329;BME280;62749;51.982;5.916;2023-03-26T04:45:22;100193.00;;;9.09;85.33
74329;BME280;62749;51.982;5.916;2023-03-26T04:47:52;100183.16;;;9.12;85.24
74329;BME280;62749;51.982;5.916;2023-03-26T04:50:21;100182.38;;;9.10;85.12
74329;BME280;62749;51.982;5.916;2023-03-26T04:52:53;100180.13;;;9.02;84.74
74329;BME280;62749;51.982;5.916;2023-03-26T04:55:30;100174.97;;;8.99;85.59
74329;BME280;62749;51.982;5.916;2023-03-26T04:58:01;100172.13;;;9.04;85.85
74329;BME280;62749;51.982;5.916;2023-03-26T05:00:33;100162.50;;;9.03;85.65
74329;BME280;62749;51.982;5.916;2023-03-26T05:03:03;100162.59;;;9.01;85.48
74329;BME280;62749;51.982;5.916;2023-03-26T05:05:35;100165.28;;;9.00;85.03
74329;BME280;62749;51.982;5.916;2023-03-26T05:08:05;100151.97;;;9.03;85.18
74329;BME280;62749;51.982;5.916;2023-03-26T05:10:35;100150.47;;;8.97;85.02
74329;BME280;62749;51.982;5.916;2023-03-26T05:13:04;100152.19;;;8.98;84.74
74329;BME280;62749;51.982;5.916;2023-03-26T05:15:36;100154.63;;;9.03;84.55
74329;BME280;62749;51.982;5.916;2023-03-26T05:18:05;100142.50;;;8.99;84.31
74329;BME280;62749;51.982;5.916;2023-03-26T05:20:35;100146.50;;;9.08;84.09
74329;BME280;62749;51.982;5.916;2023-03-26T05:23:05;100143.16;;;9.04;85.10
74329;BME280;62749;51.982;5.916;2023-03-26T05:25:36;100145.66;;;9.07;84.53
74329;BME280;62749;51.982;5.916;2023-03-26T05:28:05;100134.94;;;9.10;84.18
74329;BME280;62749;51.982;5.916;2023-03-26T05:30:37;100140.22;;;9.10;84.41
74329;BME280;62749;51.982;5.916;2023-03-26T05:33:06;100130.69;;;9.08;84.85
74329;BME280;62749;51.982;5.916;2023-03-26T05:35:36;100130.31;;;8.96;85.16
74329;BME280;62749;51.982;5.916;2023-03-26T05:38:06;100130.09;;;9.01;85.65
74329;BME280;62749;51.982;5.916;2023-03-26T05:40:35;100123.13;;;9.00;85.62
74329;BME280;62749;51.982;5.916;2023-03-26T05:43:05;100121.38;;;9.00;85.92
74329;BME280;62749;51.982;5.916;2023-03-26T05:45:37;100118.94;;;8.96;86.08
74329;BME280;62749;51.982;5.916;2023-03-26T05:48:06;100117.06;;;8.98;86.31
74329;BME280;62749;51.982;5.916;2023-03-26T05:50:35;100114.44;;;8.98;86.22
74329;BME280;62749;51.982;5.916;2023-03-26T05:53:05;100111.88;;;8.96;86.43
74329;BME280;62749;51.982;5.916;2023-03-26T05:55:34;100107.63;;;8.94;86.48
74329;BME280;62749;51.982;5.916;2023-03-26T05:58:05;100098.44;;;8.83;86.56
74329;BME280;62749;51.982;5.916;2023-03-26T06:00:37;100097.34;;;8.87;86.68
74329;BME280;62749;51.982;5.916;2023-03-26T06:03:07;100091.28;;;8.85;87.05
74329;BME280;62749;51.982;5.916;2023-03-26T06:05:50;100089.53;;;8.86;86.65
74329;BME280;62749;51.982;5.916;2023-03-26T06:08:19;100086.81;;;8.87;86.86
74329;BME280;62749;51.982;5.916;2023-03-26T06:10:49;100085.88;;;8.88;86.94
74329;BME280;62749;51.982;5.916;2023-03-26T06:13:18;100069.47;;;8.83;86.51
74329;BME280;62749;51.982;5.916;2023-03-26T06:15:50;100065.25;;;8.79;86.67
74329;BME280;62749;51.982;5.916;2023-03-26T06:18:20;100061.91;;;8.75;86.88
74329;BME280;62749;51.982;5.916;2023-03-26T06:20:50;100058.94;;;8.83;87.46
74329;BME280;62749;51.982;5.916;2023-03-26T06:23:20;100055.66;;;8.78;87.46
74329;BME280;62749;51.982;5.916;2023-03-26T06:25:49;100053.22;;;8.73;87.65
74329;BME280;62749;51.982;5.916;2023-03-26T06:28:19;100052.66;;;8.67;88.03
74329;BME280;62749;51.982;5.916;2023-03-26T06:30:51;100043.19;;;8.63;88.87
74329;BME280;62749;51.982;5.916;2023-03-26T06:33:20;100053.13;;;8.56;88.45
74329;BME280;62749;51.982;5.916;2023-03-26T06:35:49;100048.75;;;8.56;88.94
74329;BME280;62749;51.982;5.916;2023-03-26T06:38:19;100050.06;;;8.65;89.27
74329;BME280;62749;51.982;5.916;2023-03-26T06:40:48;100054.38;;;8.68;88.81
74329;BME280;62749;51.982;5.916;2023-03-26T06:43:20;100048.66;;;8.58;88.47
74329;BME280;62749;51.982;5.916;2023-03-26T06:45:52;100055.56;;;8.60;88.78
74329;BME280;62749;51.982;5.916;2023-03-26T06:48:22;100052.06;;;8.60;88.58
74329;BME280;62749;51.982;5.916;2023-03-26T06:50:51;100043.97;;;8.65;88.79
74329;BME280;62749;51.982;5.916;2023-03-26T06:53:21;100046.38;;;8.69;88.90
74329;BME280;62749;51.982;5.916;2023-03-26T06:55:51;100050.81;;;8.69;88.63
74329;BME280;62749;51.982;5.916;2023-03-26T06:58:21;100042.69;;;8.73;88.30
74329;BME280;62749;51.982;5.916;2023-03-26T07:00:55;100048.31;;;8.66;88.41
74329;BME280;62749;51.982;5.916;2023-03-26T07:03:24;100048.81;;;8.74;89.01
74329;BME280;62749;51.982;5.916;2023-03-26T07:05:54;100050.47;;;8.77;88.35
74329;BME280;62749;51.982;5.916;2023-03-26T07:08:23;100043.19;;;8.82;88.65
74329;BME280;62749;51.982;5.916;2023-03-26T07:10:52;100048.53;;;8.80;88.20
74329;BME280;62749;51.982;5.916;2023-03-26T07:13:22;100036.72;;;8.70;88.23
74329;BME280;62749;51.982;5.916;2023-03-26T07:15:54;100046.25;;;8.72;88.61
74329;BME280;62749;51.982;5.916;2023-03-26T07:18:23;100041.25;;;8.66;88.26
74329;BME280;62749;51.982;5.916;2023-03-26T07:20:53;100042.16;;;8.65;88.92
74329;BME280;62749;51.982;5.916;2023-03-26T07:23:23;100035.28;;;8.63;88.85
74329;BME280;62749;51.982;5.916;2023-03-26T07:25:53;100041.13;;;8.69;89.27
74329;BME280;62749;51.982;5.916;2023-03-26T07:28:32;100037.91;;;8.63;88.92
74329;BME280;62749;51.982;5.916;2023-03-26T07:31:18;100028.44;;;8.58;89.10
74329;BME280;62749;51.982;5.916;2023-03-26T07:33:57;100043.84;;;8.68;89.32
74329;BME280;62749;51.982;5.916;2023-03-26T07:36:34;100035.97;;;8.66;88.94
74329;BME280;62749;51.982;5.916;2023-03-26T07:39:20;100030.94;;;8.62;89.11
74329;BME280;62749;51.982;5.916;2023-03-26T07:42:02;100033.06;;;8.53;89.43
74329;BME280;62749;51.982;5.916;2023-03-26T07:44:49;100026.75;;;8.57;89.96
74329;BME280;62749;51.982;5.916;2023-03-26T07:47:28;100029.09;;;8.64;89.98
74329;BME280;62749;51.982;5.916;2023-03-26T07:49:59;100021.63;;;8.73;90.12
74329;BME280;62749;51.982;5.916;2023-03-26T07:52:29;100015.91;;;8.83;90.09
74329;BME280;62749;51.982;5.916;2023-03-26T07:54:59;100013.94;;;8.88;89.06
74329;BME280;62749;51.982;5.916;2023-03-26T07:57:38;100009.38;;;8.92;89.08
74329;BME280;62749;51.982;5.916;2023-03-26T08:00:18;100007.66;;;8.90;88.47
74329;BME280;62749;51.982;5.916;2023-03-26T08:03:10;100007.66;;;8.90;88.41
74329;BME280;62749;51.982;5.916;2023-03-26T08:05:51;100010.56;;;8.84;88.41
74329;BME280;62749;51.982;5.916;2023-03-26T08:08:29;100003.16;;;8.93;88.78
74329;BME280;62749;51.982;5.916;2023-03-26T08:11:13;100008.81;;;8.85;88.88
74329;BME280;62749;51.982;5.916;2023-03-26T08:13:57;99998.13;;;8.88;89.38
74329;BME280;62749;51.982;5.916;2023-03-26T08:16:36;100009.25;;;8.75;89.23
74329;BME280;62749;51.982;5.916;2023-03-26T08:19:31;100008.03;;;8.83;89.80
74329;BME280;62749;51.982;5.916;2023-03-26T08:22:11;100001.38;;;8.93;89.99
74329;BME280;62749;51.982;5.916;2023-03-26T08:24:50;100006.50;;;8.96;89.09
74329;BME280;62749;51.982;5.916;2023-03-26T08:27:35;100002.16;;;8.95;89.62
74329;BME280;62749;51.982;5.916;2023-03-26T08:30:13;99997.25;;;8.87;88.66
74329;BME280;62749;51.982;5.916;2023-03-26T08:32:53;100001.31;;;8.95;89.14
74329;BME280;62749;51.982;5.916;2023-03-26T08:35:26;100003.78;;;8.98;89.11
74329;BME280;62749;51.982;5.916;2023-03-26T08:37:56;100009.63;;;9.04;88.85
74329;BME280;62749;51.982;5.916;2023-03-26T08:44:18;100010.19;;;9.11;88.15
74329;BME280;62749;51.982;5.916;2023-03-26T08:47:10;100009.19;;;9.14;88.54
74329;BME280;62749;51.982;5.916;2023-03-26T08:56:28;100010.84;;;8.97;87.95
74329;BME280;62749;51.982;5.916;2023-03-26T08:59:41;100007.78;;;8.87;87.94
74329;BME280;62749;51.982;5.916;2023-03-26T09:02:49;100011.44;;;8.66;88.37
74329;BME280;62749;51.982;5.916;2023-03-26T09:06:02;100016.84;;;8.63;89.09
74329;BME280;62749;51.982;5.916;2023-03-26T09:09:05;100015.56;;;8.52;89.70
74329;BME280;62749;51.982;5.916;2023-03-26T09:18:29;100010.97;;;8.57;90.39
74329;BME280;62749;51.982;5.916;2023-03-26T09:21:31;100003.25;;;8.53;90.51
74329;BME280;62749;51.982;5.916;2023-03-26T09:24:24;100008.59;;;8.70;90.57
74329;BME280;62749;51.982;5.916;2023-03-26T09:27:29;100014.22;;;8.63;89.66
74329;BME280;62749;51.982;5.916;2023-03-26T09:33:27;100003.69;;;8.63;89.77
74329;BME280;62749;51.982;5.916;2023-03-26T09:36:38;100006.03;;;8.69;90.24
74329;BME280;62749;51.982;5.916;2023-03-26T09:39:22;100002.63;;;8.67;90.55
74329;BME280;62749;51.982;5.916;2023-03-26T09:42:12;100006.09;;;8.67;90.62
74329;BME280;62749;51.982;5.916;2023-03-26T09:45:18;100008.81;;;8.66;90.71
74329;BME280;62749;51.982;5.916;2023-03-26T09:48:19;100009.94;;;8.60;91.12
74329;BME280;62749;51.982;5.916;2023-03-26T09:51:11;100006.19;;;8.66;91.19
74329;BME280;62749;51.982;5.916;2023-03-26T09:54:04;100001.56;;;8.71;91.32
74329;BME280;62749;51.982;5.916;2023-03-26T09:56:48;100003.53;;;8.66;90.94
74329;BME280;62749;51.982;5.916;2023-03-26T09:59:45;100012.28;;;8.66;91.29
74329;BME280;62749;51.982;5.916;2023-03-26T10:02:49;100008.59;;;8.70;91.54
74329;BME280;62749;51.982;5.916;2023-03-26T10:05:43;99999.69;;;8.73;91.35
74329;BME280;62749;51.982;5.916;2023-03-26T10:08:51;100011.31;;;8.69;91.08
74329;BME280;62749;51.982;5.916;2023-03-26T10:11:34;100005.28;;;8.84;91.72
74329;BME280;62749;51.982;5.916;2023-03-26T10:14:18;100007.78;;;8.87;91.51
74329;BME280;62749;51.982;5.916;2023-03-26T10:17:03;100007.00;;;8.85;91.09
74329;BME280;62749;51.982;5.916;2023-03-26T10:19:47;100019.47;;;8.63;91.91
74329;BME280;62749;51.982;5.916;2023-03-26T10:22:31;100011.22;;;8.70;92.62
74329;BME280;62749;51.982;5.916;2023-03-26T10:25:31;100002.19;;;8.76;92.76
74329;BME280;62749;51.982;5.916;2023-03-26T10:28:19;100006.38;;;8.80;92.52
74329;BME280;62749;51.982;5.916;2023-03-26T10:31:07;99996.63;;;8.82;93.03
74329;BME280;62749;51.982;5.916;2023-03-26T10:33:54;100007.09;;;8.84;92.63
74329;BME280;62749;51.982;5.916;2023-03-26T10:36:31;100012.09;;;8.90;92.44
74329;BME280;62749;51.982;5.916;2023-03-26T10:39:21;100007.63;;;9.10;92.27
74329;BME280;62749;51.982;5.916;2023-03-26T10:42:03;100009.38;;;9.28;91.99
74329;BME280;62749;51.982;5.916;2023-03-26T10:45:02;100010.47;;;9.42;91.32
74329;BME280;62749;51.982;5.916;2023-03-26T10:48:16;100008.22;;;9.51;91.42
74329;BME280;62749;51.982;5.916;2023-03-26T10:53:55;100021.16;;;9.39;90.69
74329;BME280;62749;51.982;5.916;2023-03-26T10:56:32;100014.25;;;9.36;90.75
74329;BME280;62749;51.982;5.916;2023-03-26T10:59:05;100012.31;;;9.22;90.30
74329;BME280;62749;51.982;5.916;2023-03-26T11:01:41;100021.44;;;9.15;90.27
74329;BME280;62749;51.982;5.916;2023-03-26T11:04:23;100016.94;;;9.17;90.40
74329;BME280;62749;51.982;5.916;2023-03-26T11:07:09;100028.19;;;9.20;90.28
74329;BME280;62749;51.982;5.916;2023-03-26T11:09:48;100022.84;;;9.22;90.68
74329;BME280;62749;51.982;5.916;2023-03-26T11:12:27;100024.00;;;9.16;90.39
74329;BME280;62749;51.982;5.916;2023-03-26T11:15:09;100023.34;;;9.11;91.01
74329;BME280;62749;51.982;5.916;2023-03-26T11:17:54;100020.75;;;8.92;90.92
74329;BME280;62749;51.982;5.916;2023-03-26T11:20:35;100026.56;;;8.99;91.09
74329;BME280;62749;51.982;5.916;2023-03-26T11:23:31;100032.78;;;8.98;91.47
74329;BME280;62749;51.982;5.916;2023-03-26T11:26:08;100040.75;;;8.77;91.35
74329;BME280;62749;51.982;5.916;2023-03-26T11:29:10;100034.44;;;8.81;91.96
74329;BME280;62749;51.982;5.916;2023-03-26T11:31:54;100033.16;;;8.71;91.38
74329;BME280;62749;51.982;5.916;2023-03-26T11:34:31;100034.69;;;8.56;92.15
74329;BME280;62749;51.982;5.916;2023-03-26T11:37:10;100038.63;;;8.66;92.45
74329;BME280;62749;51.982;5.916;2023-03-26T11:39:48;100043.13;;;8.64;92.49
74329;BME280;62749;51.982;5.916;2023-03-26T11:42:22;100044.31;;;8.76;92.27
74329;BME280;62749;51.982;5.916;2023-03-26T11:44:55;100048.22;;;8.86;92.18
74329;BME280;62749;51.982;5.916;2023-03-26T11:47:32;100047.94;;;8.93;92.64
74329;BME280;62749;51.982;5.916;2023-03-26T11:50:06;100054.22;;;8.90;91.82
74329;BME280;62749;51.982;5.916;2023-03-26T11:52:38;100050.16;;;8.64;91.43
74329;BME280;62749;51.982;5.916;2023-03-26T11:55:12;100057.34;;;8.79;91.82
74329;BME280;62749;51.982;5.916;2023-03-26T11:57:49;100047.25;;;8.70;91.54
74329;BME280;62749;51.982;5.916;2023-03-26T12:00:22;100059.50;;;8.71;91.62
74329;BME280;62749;51.982;5.916;2023-03-26T12:02:57;100054.72;;;8.60;91.54
74329;BME280;62749;51.982;5.916;2023-03-26T12:05:27;100055.06;;;8.71;92.05
74329;BME280;62749;51.982;5.916;2023-03-26T12:08:17;100053.22;;;8.73;91.85
74329;BME280;62749;51.982;5.916;2023-03-26T12:11:00;100059.69;;;8.66;90.85
74329;BME280;62749;51.982;5.916;2023-03-26T12:13:38;100058.75;;;8.67;90.91
74329;BME280;62749;51.982;5.916;2023-03-26T12:16:11;100058.19;;;8.60;90.40
74329;BME280;62749;51.982;5.916;2023-03-26T12:18:43;100063.03;;;8.51;90.10
74329;BME280;62749;51.982;5.916;2023-03-26T12:21:17;100064.13;;;8.45;89.69
74329;BME280;62749;51.982;5.916;2023-03-26T12:23:54;100068.09;;;8.55;90.02
74329;BME280;62749;51.982;5.916;2023-03-26T12:26:35;100069.38;;;8.66;89.66
74329;BME280;62749;51.982;5.916;2023-03-26T12:29:09;100065.13;;;8.63;88.92
74329;BME280;62749;51.982;5.916;2023-03-26T12:31:51;100070.78;;;8.54;87.67
74329;BME280;62749;51.982;5.916;2023-03-26T12:34:29;100075.31;;;8.50;87.97
74329;BME280;62749;51.982;5.916;2023-03-26T12:37:02;100073.84;;;8.64;88.98
74329;BME280;62749;51.982;5.916;2023-03-26T12:39:35;100077.38;;;8.83;88.56
74329;BME280;62749;51.982;5.916;2023-03-26T12:42:24;100069.03;;;8.93;89.05
74329;BME280;62749;51.982;5.916;2023-03-26T12:44:55;100081.63;;;8.86;87.76
74329;BME280;62749;51.982;5.916;2023-03-26T12:47:28;100084.75;;;8.75;87.54
74329;BME280;62749;51.982;5.916;2023-03-26T12:49:59;100081.50;;;8.70;88.54
74329;BME280;62749;51.982;5.916;2023-03-26T12:52:43;100085.75;;;8.72;88.39
74329;BME280;62749;51.982;5.916;2023-03-26T12:55:35;100089.31;;;8.71;87.68
74329;BME280;62749;51.982;5.916;2023-03-26T12:58:30;100084.94;;;8.51;88.14
74329;BME280;62749;51.982;5.916;2023-03-26T13:01:12;100086.78;;;8.49;88.87
74329;BME280;62749;51.982;5.916;2023-03-26T13:04:04;100105.78;;;8.56;88.02
74329;BME280;62749;51.982;5.916;2023-03-26T13:06:40;100088.50;;;8.50;87.35
74329;BME280;62749;51.982;5.916;2023-03-26T13:09:32;100099.03;;;8.50;87.91
74329;BME280;62749;51.982;5.916;2023-03-26T13:12:18;100110.84;;;8.60;87.92
74329;BME280;62749;51.982;5.916;2023-03-26T13:15:08;100109.13;;;8.59;87.63
74329;BME280;62749;51.982;5.916;2023-03-26T13:17:49;100106.91;;;8.50;87.86
74329;BME280;62749;51.982;5.916;2023-03-26T13:20:30;100103.63;;;8.45;86.97
74329;BME280;62749;51.982;5.916;2023-03-26T13:23:11;100112.34;;;8.45;87.19
74329;BME280;62749;51.982;5.916;2023-03-26T13:25:53;100115.81;;;8.46;87.47
74329;BME280;62749;51.982;5.916;2023-03-26T13:28:33;100111.66;;;8.42;87.33
74329;BME280;62749;51.982;5.916;2023-03-26T13:31:19;100096.31;;;8.31;86.92
74329;BME280;62749;51.982;5.916;2023-03-26T13:33:58;100117.03;;;8.39;86.55
74329;BME280;62749;51.982;5.916;2023-03-26T13:36:37;100111.91;;;8.36;86.51
74329;BME280;62749;51.982;5.916;2023-03-26T13:39:19;100112.56;;;8.41;87.69
74329;BME280;62749;51.982;5.916;2023-03-26T13:42:13;100120.19;;;8.47;87.86
74329;BME280;62749;51.982;5.916;2023-03-26T13:44:57;100111.13;;;8.54;86.82
74329;BME280;62749;51.982;5.916;2023-03-26T13:47:35;100124.00;;;8.60;86.34
74329;BME280;62749;51.982;5.916;2023-03-26T13:50:19;100127.50;;;8.61;85.81
74329;BME280;62749;51.982;5.916;2023-03-26T13:52:57;100122.81;;;8.68;86.20
74329;BME280;62749;51.982;5.916;2023-03-26T13:55:30;100127.09;;;8.70;85.71
74329;BME280;62749;51.982;5.916;2023-03-26T13:58:11;100132.69;;;8.63;84.62
74329;BME280;62749;51.982;5.916;2023-03-26T14:00:51;100133.53;;;8.84;85.93
74329;BME280;62749;51.982;5.916;2023-03-26T14:03:30;100130.09;;;9.01;83.92
74329;BME280;62749;51.982;5.916;2023-03-26T14:06:09;100130.53;;;8.92;83.21
74329;BME280;62749;51.982;5.916;2023-03-26T14:08:45;100133.53;;;9.03;83.90
74329;BME280;62749;51.982;5.916;2023-03-26T14:11:21;100139.25;;;9.13;83.42
74329;BME280;62749;51.982;5.916;2023-03-26T14:14:03;100144.50;;;9.13;80.90
74329;BME280;62749;51.982;5.916;2023-03-26T14:16:38;100152.47;;;9.11;81.54